createdAt,value
2023-04-08T00:02:01.831Z,13.63
2023-04-08T00:04:29.184Z,13.25
2023-04-08T00:06:56.647Z,13.18
2023-04-08T00:09:23.767Z,12.25
2023-04-08T00:11:52.875Z,12.65
2023-04-08T00:14:20.184Z,12.10
2023-04-08T00:16:47.345Z,13.20
2023-04-08T00:19:14.712Z,12.70
2023-04-08T00:21:41.853Z,13.50
2023-04-08T00:24:09.090Z,13.57
2023-04-08T00:26:36.269Z,13.52
2023-04-08T00:29:03.741Z,13.77
2023-04-08T00:31:31.046Z,12.95
2023-04-08T00:33:59.309Z,12.85
2023-04-08T00:36:27.646Z,12.45
2023-04-08T00:38:54.806Z,12.57
2023-04-08T00:41:21.951Z,13.07
2023-04-08T00:43:49.156Z,13.80
2023-04-08T00:46:16.712Z,13.75
2023-04-08T00:48:43.997Z,11.93
2023-04-08T00:51:11.315Z,13.73
2023-04-08T00:53:38.528Z,12.43
2023-04-08T00:56:05.810Z,13.55
2023-04-08T00:58:33.488Z,13.70
2023-04-08T01:01:54.722Z,13.40
2023-04-08T01:04:40.888Z,12.90
2023-04-08T01:07:22.661Z,12.18
2023-04-08T01:09:56.656Z,13.65
2023-04-08T01:12:31.006Z,14.27
2023-04-08T01:15:08.702Z,13.90
2023-04-08T01:17:38.149Z,14.52
2023-04-08T01:20:07.549Z,15.10
2023-04-08T01:23:29.211Z,15.73
2023-04-08T01:25:57.338Z,14.95
2023-04-08T01:28:29.847Z,15.05
2023-04-08T01:31:01.368Z,15.02
2023-04-08T01:33:29.722Z,14.93
2023-04-08T01:35:59.067Z,16.08
2023-04-08T01:38:28.042Z,16.23
2023-04-08T01:40:57.155Z,17.50
2023-04-08T01:43:26.133Z,18.48
2023-04-08T01:45:58.148Z,17.60
2023-04-08T01:48:26.081Z,17.77
2023-04-08T01:50:55.158Z,17.05
2023-04-08T01:53:22.882Z,17.17
2023-04-08T01:55:58.564Z,18.70
2023-04-08T01:58:31.735Z,17.35
2023-04-08T02:00:59.909Z,19.52
2023-04-08T02:03:29.960Z,17.90
2023-04-08T02:05:57.377Z,17.98
2023-04-08T02:08:24.516Z,17.33
2023-04-08T02:10:51.785Z,17.55
2023-04-08T02:13:19.123Z,17.92
2023-04-08T02:15:57.789Z,17.75
2023-04-08T02:18:28.556Z,17.80
2023-04-08T02:21:10.063Z,16.30
2023-04-08T02:23:40.888Z,15.88
2023-04-08T02:26:16.798Z,16.17
2023-04-08T02:28:44.815Z,15.02
2023-04-08T02:31:16.050Z,14.52
2023-04-08T02:33:46.697Z,14.13
2023-04-08T02:36:15.690Z,15.75
2023-04-08T02:38:43.236Z,16.20
2023-04-08T02:41:10.393Z,15.75
2023-04-08T02:43:37.660Z,16.33
2023-04-08T02:46:07.320Z,16.98
2023-04-08T02:48:36.873Z,15.57
2023-04-08T02:51:04.188Z,17.23
2023-04-08T02:53:31.378Z,16.48
2023-04-08T02:55:58.584Z,14.02
2023-04-08T02:58:25.752Z,15.20
2023-04-08T03:00:53.049Z,15.13
2023-04-08T03:03:20.343Z,14.10
2023-04-08T03:05:47.522Z,14.18
2023-04-08T03:08:14.680Z,14.32
2023-04-08T03:10:42.070Z,14.90
2023-04-08T03:13:09.206Z,16.15
2023-04-08T03:15:36.436Z,14.80
2023-04-08T03:18:05.042Z,15.35
2023-04-08T03:20:32.370Z,15.73
2023-04-08T03:22:59.525Z,15.38
2023-04-08T03:25:29.038Z,15.65
2023-04-08T03:27:58.436Z,15.68
2023-04-08T03:30:26.135Z,15.93
2023-04-08T03:32:53.510Z,15.60
2023-04-08T03:35:20.941Z,15.32
2023-04-08T03:37:48.523Z,15.68
2023-04-08T03:40:15.795Z,15.70
2023-04-08T03:42:42.966Z,15.85
2023-04-08T03:45:10.439Z,16.40
2023-04-08T03:47:37.654Z,15.50
2023-04-08T03:50:05.395Z,15.57
2023-04-08T03:52:32.537Z,15.55
2023-04-08T03:54:59.725Z,17.45
2023-04-08T03:57:27.037Z,16.45
2023-04-08T03:59:54.413Z,16.23
2023-04-08T04:02:21.673Z,18.00
2023-04-08T04:04:48.962Z,15.77
2023-04-08T04:07:16.435Z,17.00
2023-04-08T04:09:43.600Z,16.63
2023-04-08T04:12:11.827Z,16.48
2023-04-08T04:14:38.955Z,14.68
2023-04-08T04:17:06.117Z,15.95
2023-04-08T04:19:33.227Z,16.33
2023-04-08T04:22:00.378Z,16.85
2023-04-08T04:24:27.582Z,15.55
2023-04-08T04:26:54.750Z,14.60
2023-04-08T04:29:21.966Z,14.52
2023-04-08T04:31:49.147Z,15.80
2023-04-08T04:34:16.508Z,15.25
2023-04-08T04:36:44.016Z,14.88
2023-04-08T04:39:11.237Z,15.25
2023-04-08T04:41:40.344Z,15.20
2023-04-08T04:44:07.579Z,15.95
2023-04-08T04:46:34.812Z,14.88
2023-04-08T04:49:02.006Z,14.25
2023-04-08T04:51:33.300Z,14.52
2023-04-08T04:54:00.783Z,15.27
2023-04-08T04:56:27.959Z,13.80
2023-04-08T04:58:55.105Z,14.00
2023-04-08T05:01:22.334Z,13.07
2023-04-08T05:03:49.489Z,13.85
2023-04-08T05:06:16.684Z,13.57
2023-04-08T05:08:43.840Z,14.13
2023-04-08T05:11:11.755Z,13.20
2023-04-08T05:13:38.917Z,14.85
2023-04-08T05:16:06.853Z,13.13
2023-04-08T05:18:34.094Z,13.57
2023-04-08T05:21:01.282Z,14.30
2023-04-08T05:23:28.723Z,13.05
2023-04-08T05:25:56.320Z,12.85
2023-04-08T05:28:23.519Z,13.70
2023-04-08T05:30:52.114Z,13.40
2023-04-08T05:35:47.065Z,12.70
2023-04-08T05:38:14.212Z,12.45
2023-04-08T05:40:41.542Z,12.75
2023-04-08T05:43:08.750Z,12.40
2023-04-08T05:45:36.025Z,12.63
2023-04-08T05:48:03.366Z,12.52
2023-04-08T05:50:30.562Z,12.82
2023-04-08T05:52:57.861Z,13.48
2023-04-08T05:55:25.158Z,12.40
2023-04-08T05:57:52.344Z,11.93
2023-04-08T06:00:20.050Z,12.07
2023-04-08T06:02:47.332Z,12.90
2023-04-08T06:05:14.653Z,12.95
2023-04-08T06:07:41.818Z,11.75
2023-04-08T06:10:09.375Z,12.27
2023-04-08T06:12:40.885Z,12.23
2023-04-08T06:15:09.801Z,13.65
2023-04-08T06:17:38.422Z,13.82
2023-04-08T06:22:34.151Z,13.02
2023-04-08T06:25:01.490Z,14.13
2023-04-08T06:27:29.007Z,14.35
2023-04-08T06:29:56.273Z,15.40
2023-04-08T06:32:23.568Z,13.73
2023-04-08T06:34:51.058Z,12.20
2023-04-08T06:37:18.262Z,14.77
2023-04-08T06:39:45.460Z,15.75
2023-04-08T06:42:12.613Z,14.85
2023-04-08T06:45:00.346Z,14.50
2023-04-08T06:47:27.528Z,14.00
2023-04-08T06:49:54.705Z,15.45
2023-04-08T06:52:21.914Z,14.38
2023-04-08T06:54:49.041Z,15.13
2023-04-08T06:57:16.235Z,15.13
2023-04-08T06:59:43.411Z,15.73
2023-04-08T07:02:10.578Z,14.63
2023-04-08T07:04:37.800Z,15.57
2023-04-08T07:07:04.922Z,15.32
2023-04-08T07:09:32.609Z,15.15
2023-04-08T07:11:59.911Z,15.93
2023-04-08T07:14:27.102Z,15.98
2023-04-08T07:16:54.417Z,15.60
2023-04-08T07:19:24.543Z,15.52
2023-04-08T07:21:52.684Z,16.38
2023-04-08T07:24:19.837Z,14.95
2023-04-08T07:26:47.722Z,14.93
2023-04-08T07:29:14.881Z,14.88
2023-04-08T07:31:44.345Z,13.77
2023-04-08T07:34:11.757Z,14.15
2023-04-08T07:36:39.188Z,16.00
2023-04-08T07:39:06.506Z,15.10
2023-04-08T07:41:33.634Z,14.05
2023-04-08T07:44:00.901Z,15.32
2023-04-08T07:46:28.070Z,15.68
2023-04-08T07:48:55.256Z,14.90
2023-04-08T07:51:22.396Z,17.83
2023-04-08T07:53:49.708Z,16.23
2023-04-08T07:56:18.278Z,15.30
2023-04-08T07:58:47.141Z,17.00
2023-04-08T08:01:23.020Z,15.90
2023-04-08T08:03:54.104Z,16.60
2023-04-08T08:06:22.209Z,20.27
2023-04-08T08:08:49.386Z,16.90
2023-04-08T08:11:16.566Z,18.42
2023-04-08T08:13:43.862Z,17.25
2023-04-08T08:16:12.098Z,17.58
2023-04-08T08:18:40.797Z,17.30
2023-04-08T08:21:09.255Z,16.25
2023-04-08T08:23:37.716Z,16.65
2023-04-08T08:28:39.568Z,15.60
2023-04-08T08:31:07.162Z,15.00
2023-04-08T08:33:34.791Z,14.20
2023-04-08T08:36:02.188Z,15.57
2023-04-08T08:38:29.499Z,14.43
2023-04-08T08:41:01.519Z,16.25
2023-04-08T08:43:30.180Z,15.52
2023-04-08T08:45:57.436Z,17.40
2023-04-08T08:48:24.738Z,16.60
2023-04-08T08:50:52.282Z,18.65
2023-04-08T08:53:23.290Z,16.70
2023-04-08T08:56:16.478Z,15.10
2023-04-08T08:58:39.186Z,16.48
2023-04-08T09:01:37.767Z,17.20
2023-04-08T09:04:18.672Z,15.57
2023-04-08T09:07:13.886Z,16.83
2023-04-08T09:09:53.313Z,18.50
2023-04-08T09:12:20.835Z,18.90
2023-04-08T09:14:48.442Z,20.08
2023-04-08T09:17:17.130Z,19.33
2023-04-08T09:20:12.282Z,20.60
2023-04-08T09:23:02.497Z,21.55
2023-04-08T09:25:34.195Z,20.88
2023-04-08T09:28:02.807Z,20.88
2023-04-08T09:30:32.272Z,19.92
2023-04-08T09:33:01.296Z,15.45
2023-04-08T09:35:28.650Z,18.08
2023-04-08T09:37:55.981Z,15.30
2023-04-08T09:40:25.186Z,18.05
2023-04-08T09:42:54.338Z,18.77
2023-04-08T09:45:22.061Z,17.90
2023-04-08T09:48:19.263Z,17.33
2023-04-08T09:50:52.683Z,15.32
2023-04-08T09:53:38.992Z,16.50
2023-04-08T09:56:11.035Z,16.55
2023-04-08T09:58:49.459Z,16.92
2023-04-08T10:01:22.967Z,15.15
2023-04-08T10:03:57.361Z,15.63
2023-04-08T10:08:56.937Z,12.52
2023-04-08T10:11:24.457Z,14.27
2023-04-08T10:13:52.515Z,13.88
2023-04-08T10:16:29.904Z,15.82
2023-04-08T10:18:57.300Z,12.38
2023-04-08T10:21:48.580Z,14.48
2023-04-08T10:24:15.763Z,13.35
2023-04-08T10:26:45.900Z,14.02
2023-04-08T10:29:19.174Z,14.70
2023-04-08T10:31:51.456Z,13.70
2023-04-08T10:34:27.237Z,13.35
2023-04-08T10:36:58.889Z,11.20
2023-04-08T10:39:27.210Z,12.48
2023-04-08T10:41:55.942Z,12.18
2023-04-08T10:44:29.098Z,9.38
2023-04-08T10:46:56.479Z,11.43
2023-04-08T10:49:35.567Z,10.57
2023-04-08T10:52:09.206Z,10.70
2023-04-08T10:54:38.428Z,12.95
2023-04-08T10:57:05.949Z,11.98
2023-04-08T10:59:33.281Z,13.18
2023-04-08T11:02:01.513Z,10.23
2023-04-08T11:04:30.439Z,11.90
2023-04-08T11:06:58.477Z,12.68
2023-04-08T11:09:25.623Z,11.82
2023-04-08T11:11:53.667Z,11.10
2023-04-08T11:14:22.430Z,11.23
2023-04-08T11:16:49.749Z,11.88
2023-04-08T11:19:17.091Z,11.40
2023-04-08T11:21:44.447Z,11.32
2023-04-08T11:24:13.609Z,10.30
2023-04-08T11:26:42.150Z,11.65
2023-04-08T11:29:14.341Z,9.30
2023-04-08T11:31:43.891Z,10.73
2023-04-08T11:34:11.397Z,11.35
2023-04-08T11:36:41.477Z,10.40
2023-04-08T11:39:12.059Z,11.15
2023-04-08T11:41:40.551Z,10.18
2023-04-08T11:44:08.606Z,10.63
2023-04-08T11:46:36.209Z,10.07
2023-04-08T11:49:07.978Z,11.95
2023-04-08T11:51:55.009Z,10.55
2023-04-08T11:54:33.459Z,11.95
2023-04-08T11:57:02.927Z,10.20
2023-04-08T11:59:30.305Z,11.07
2023-04-08T12:01:57.887Z,9.48
2023-04-08T12:04:25.592Z,9.27
2023-04-08T12:06:53.324Z,11.32
2023-04-08T12:09:20.505Z,8.90
2023-04-08T12:11:48.076Z,9.82
2023-04-08T12:14:15.575Z,11.75
2023-04-08T12:16:42.788Z,11.50
2023-04-08T12:19:10.094Z,10.45
2023-04-08T12:21:38.132Z,9.23
2023-04-08T12:24:05.580Z,8.63
2023-04-08T12:26:32.761Z,9.27
2023-04-08T12:28:59.879Z,8.18
2023-04-08T12:31:28.346Z,9.52
2023-04-08T12:33:55.505Z,7.32
2023-04-08T12:36:22.652Z,9.48
2023-04-08T12:38:50.079Z,9.40
2023-04-08T12:41:17.475Z,9.93
2023-04-08T12:43:44.696Z,9.65
2023-04-08T12:46:12.825Z,8.57
2023-04-08T12:48:40.846Z,9.60
2023-04-08T12:51:10.233Z,9.55
2023-04-08T12:53:37.562Z,8.93
2023-04-08T12:56:05.390Z,9.27
2023-04-08T12:58:32.527Z,9.52
2023-04-08T13:00:59.706Z,8.48
2023-04-08T13:03:30.192Z,7.78
2023-04-08T13:05:59.070Z,8.95
2023-04-08T13:08:26.468Z,8.15
2023-04-08T13:10:54.782Z,9.00
2023-04-08T13:15:49.033Z,8.73
2023-04-08T13:18:16.546Z,6.32
2023-04-08T13:20:43.723Z,8.35
2023-04-08T13:23:10.922Z,8.38
2023-04-08T13:25:38.106Z,7.70
2023-04-08T13:28:05.285Z,7.85
2023-04-08T13:30:32.517Z,7.95
2023-04-08T13:32:59.713Z,9.50
2023-04-08T13:35:27.037Z,7.38
2023-04-08T13:37:54.179Z,8.98
2023-04-08T13:40:21.478Z,7.63
2023-04-08T13:42:48.797Z,7.88
2023-04-08T13:45:15.968Z,8.25
2023-04-08T13:47:43.203Z,8.15
2023-04-08T13:50:10.808Z,8.32
2023-04-08T13:52:38.096Z,7.75
2023-04-08T13:55:06.224Z,7.57
2023-04-08T14:00:00.738Z,8.35
2023-04-08T14:02:28.242Z,7.72
2023-04-08T14:04:55.413Z,7.18
2023-04-08T14:07:22.548Z,6.88
2023-04-08T14:09:49.734Z,7.70
2023-04-08T14:12:16.900Z,7.97
2023-04-08T14:14:44.028Z,8.20
2023-04-08T14:17:11.248Z,9.45
2023-04-08T14:19:38.507Z,7.38
2023-04-08T14:22:05.801Z,6.90
2023-04-08T14:24:32.959Z,7.65
2023-04-08T14:27:00.139Z,8.60
2023-04-08T14:29:27.803Z,7.93
2023-04-08T14:31:54.955Z,7.57
2023-04-08T14:34:22.172Z,7.65
2023-04-08T14:36:49.406Z,8.77
2023-04-08T14:39:16.609Z,7.38
2023-04-08T14:41:43.837Z,9.07
2023-04-08T14:44:10.975Z,8.32
2023-04-08T14:46:38.342Z,8.73
2023-04-08T14:49:07.014Z,7.90
2023-04-08T14:51:34.432Z,7.38
2023-04-08T14:54:02.038Z,7.78
2023-04-08T14:56:29.239Z,7.85
2023-04-08T14:58:56.433Z,7.50
2023-04-08T15:01:23.731Z,7.78
2023-04-08T15:03:51.013Z,8.05
2023-04-08T15:06:18.654Z,7.32
2023-04-08T15:08:45.883Z,7.47
2023-04-08T15:11:13.127Z,7.53
2023-04-08T15:13:40.580Z,7.97
2023-04-08T15:16:07.826Z,7.72
2023-04-08T15:18:36.091Z,8.40
2023-04-08T15:21:03.555Z,7.80
2023-04-08T15:23:30.953Z,8.40
2023-04-08T15:25:58.182Z,8.18
2023-04-08T15:28:25.309Z,7.28
2023-04-08T15:30:52.550Z,8.10
2023-04-08T15:33:19.988Z,7.07
2023-04-08T15:35:48.344Z,7.97
2023-04-08T15:38:16.290Z,6.85
2023-04-08T15:40:44.211Z,7.35
2023-04-08T15:43:12.404Z,7.05
2023-04-08T15:45:44.396Z,7.53
2023-04-08T15:48:11.762Z,7.65
2023-04-08T15:50:39.113Z,6.75
2023-04-08T15:53:06.266Z,7.35
2023-04-08T15:55:41.535Z,7.82
2023-04-08T15:58:08.735Z,8.10
2023-04-08T16:00:36.043Z,7.28
2023-04-08T16:03:05.421Z,7.70
2023-04-08T16:05:35.876Z,8.25
2023-04-08T16:08:04.476Z,7.55
2023-04-08T16:10:31.809Z,7.65
2023-04-08T16:12:59.078Z,7.40
2023-04-08T16:15:26.576Z,7.25
2023-04-08T16:17:54.036Z,7.22
2023-04-08T16:20:21.892Z,7.45
2023-04-08T16:22:50.129Z,7.15
2023-04-08T16:27:44.911Z,7.50
2023-04-08T16:30:12.403Z,7.20
2023-04-08T16:32:40.265Z,7.72
2023-04-08T16:35:08.408Z,8.52
2023-04-08T16:37:35.577Z,6.97
2023-04-08T16:40:03.774Z,8.02
2023-04-08T16:44:59.709Z,7.50
2023-04-08T16:47:27.500Z,6.95
2023-04-08T16:49:54.955Z,6.90
2023-04-08T16:52:22.294Z,7.80
2023-04-08T16:54:49.457Z,6.90
2023-04-08T16:57:16.765Z,8.23
2023-04-08T16:59:44.067Z,7.00
2023-04-08T17:02:11.294Z,7.93
2023-04-08T17:04:38.776Z,7.75
2023-04-08T17:07:06.560Z,7.95
2023-04-08T17:09:34.265Z,7.43
2023-04-08T17:12:02.046Z,7.13
2023-04-08T17:14:29.273Z,7.57
2023-04-08T17:16:57.238Z,8.13
2023-04-08T17:19:24.488Z,7.35
2023-04-08T17:21:52.057Z,7.22
2023-04-08T17:24:19.366Z,7.20
2023-04-08T17:26:46.684Z,8.02
2023-04-08T17:29:13.788Z,7.90
2023-04-08T17:31:41.361Z,8.68
2023-04-08T17:34:08.605Z,7.90
2023-04-08T17:36:35.787Z,8.23
2023-04-08T17:39:02.944Z,7.65
2023-04-08T17:41:39.555Z,7.50
2023-04-08T17:44:07.938Z,8.32
2023-04-08T17:46:35.146Z,7.93
2023-04-08T17:49:02.371Z,8.18
2023-04-08T17:51:30.913Z,8.13
2023-04-08T17:53:58.778Z,9.13
2023-04-08T17:56:27.682Z,9.45
2023-04-08T17:58:54.857Z,9.30
2023-04-08T18:01:22.516Z,9.57
2023-04-08T18:03:51.713Z,10.00
2023-04-08T18:06:19.264Z,9.98
2023-04-08T18:08:46.439Z,9.85
2023-04-08T18:11:13.581Z,10.48
2023-04-08T18:13:40.711Z,9.30
2023-04-08T18:16:17.323Z,8.95
2023-04-08T18:18:46.040Z,10.57
2023-04-08T18:21:15.265Z,11.73
2023-04-08T18:23:42.470Z,14.43
2023-04-08T18:26:10.739Z,13.35
2023-04-08T18:28:37.879Z,14.55
2023-04-08T18:31:05.185Z,14.20
2023-04-08T18:33:32.471Z,13.40
2023-04-08T18:36:12.159Z,12.77
2023-04-08T18:38:40.831Z,12.68
2023-04-08T18:41:08.635Z,13.30
2023-04-08T18:43:36.013Z,13.15
2023-04-08T18:46:04.652Z,13.05
2023-04-08T18:48:33.068Z,13.30
2023-04-08T18:51:01.878Z,11.93
2023-04-08T18:53:29.098Z,10.98
2023-04-08T18:55:56.415Z,12.13
2023-04-08T18:58:23.556Z,12.23
2023-04-08T19:00:50.962Z,12.77
2023-04-08T19:03:18.173Z,11.18
2023-04-08T19:05:46.483Z,13.20
2023-04-08T19:08:13.725Z,12.77
2023-04-08T19:10:41.150Z,11.98
2023-04-08T19:13:08.697Z,11.88
2023-04-08T19:15:36.992Z,11.18
2023-04-08T19:18:05.568Z,11.73
2023-04-08T19:20:33.660Z,11.98
2023-04-08T19:23:00.870Z,10.07
2023-04-08T19:25:28.025Z,10.32
2023-04-08T19:27:55.207Z,11.05
2023-04-08T19:30:22.380Z,11.70
2023-04-08T19:32:49.666Z,10.38
2023-04-08T19:35:16.843Z,10.82
2023-04-08T19:37:44.238Z,11.32
2023-04-08T19:40:11.711Z,13.07
2023-04-08T19:42:38.897Z,11.07
2023-04-08T19:45:06.977Z,11.30
2023-04-08T19:47:34.673Z,12.73
2023-04-08T19:50:01.907Z,12.88
2023-04-08T19:52:29.030Z,11.02
2023-04-08T19:54:56.294Z,10.45
2023-04-08T19:57:24.042Z,11.68
2023-04-08T19:59:53.710Z,10.70
2023-04-08T20:02:22.065Z,9.65
2023-04-08T20:07:16.747Z,10.63
2023-04-08T20:09:43.930Z,10.93
2023-04-08T20:12:11.368Z,10.30
2023-04-08T20:14:43.118Z,11.75
2023-04-08T20:17:11.534Z,11.40
2023-04-08T20:19:38.903Z,11.07
2023-04-08T20:22:06.088Z,11.27
2023-04-08T20:24:33.243Z,10.95
2023-04-08T20:27:00.372Z,11.98
2023-04-08T20:29:28.484Z,11.18
2023-04-08T20:31:55.757Z,11.98
2023-04-08T20:34:22.975Z,12.65
2023-04-08T20:36:50.907Z,13.73
2023-04-08T20:39:18.436Z,12.18
2023-04-08T20:41:45.687Z,12.65
2023-04-08T20:44:12.993Z,12.65
2023-04-08T20:46:40.243Z,12.70
2023-04-08T20:49:07.593Z,12.13
2023-04-08T20:51:34.882Z,11.98
2023-04-08T20:54:02.409Z,12.77
2023-04-08T20:56:29.724Z,11.43
2023-04-08T20:58:59.667Z,11.50
2023-04-08T21:01:27.725Z,11.43
2023-04-08T21:03:55.935Z,12.13
2023-04-08T21:06:23.791Z,11.88
2023-04-08T21:08:51.429Z,11.65
2023-04-08T21:11:19.149Z,11.27
2023-04-08T21:13:48.645Z,11.05
2023-04-08T21:16:16.667Z,11.40
2023-04-08T21:18:43.906Z,9.52
2023-04-08T21:21:11.280Z,10.25
2023-04-08T21:23:38.515Z,10.60
2023-04-08T21:26:15.315Z,12.05
2023-04-08T21:28:43.886Z,11.65
2023-04-08T21:31:12.832Z,10.40
2023-04-08T21:33:40.595Z,11.63
2023-04-08T21:36:08.001Z,10.27
2023-04-08T21:38:35.404Z,10.77
2023-04-08T21:41:02.689Z,9.68
2023-04-08T21:43:29.927Z,10.93
2023-04-08T21:45:57.112Z,11.23
2023-04-08T21:48:24.422Z,10.95
2023-04-08T21:50:51.638Z,10.68
2023-04-08T21:53:19.972Z,10.77
2023-04-08T21:55:47.084Z,9.95
2023-04-08T21:58:14.474Z,11.13
2023-04-08T22:00:41.757Z,10.45
2023-04-08T22:03:09.083Z,11.00
2023-04-08T22:05:36.814Z,11.63
2023-04-08T22:08:04.205Z,10.95
2023-04-08T22:10:31.347Z,10.05
2023-04-08T22:12:58.533Z,10.57
2023-04-08T22:15:25.694Z,9.60
2023-04-08T22:17:53.122Z,10.38
2023-04-08T22:20:20.414Z,10.57
2023-04-08T22:22:47.786Z,10.32
2023-04-08T22:25:15.272Z,10.75
2023-04-08T22:27:42.526Z,10.13
2023-04-08T22:30:10.499Z,10.68
2023-04-08T22:32:37.726Z,11.38
2023-04-08T22:35:06.102Z,10.40
2023-04-08T22:37:33.264Z,10.40
2023-04-08T22:40:01.027Z,10.65
2023-04-08T22:42:28.199Z,9.90
2023-04-08T22:44:55.709Z,10.40
2023-04-08T22:47:22.984Z,10.77
2023-04-08T22:49:50.389Z,11.25
2023-04-08T22:52:17.568Z,10.13
2023-04-08T22:54:44.750Z,10.40
2023-04-08T22:57:11.850Z,9.88
2023-04-08T22:59:39.074Z,9.25
2023-04-08T23:02:06.441Z,10.80
2023-04-08T23:04:33.656Z,10.45
2023-04-08T23:07:01.071Z,9.82
2023-04-08T23:09:28.352Z,10.23
2023-04-08T23:11:55.890Z,10.73
2023-04-08T23:14:23.026Z,10.95
2023-04-08T23:16:50.300Z,11.55
2023-04-08T23:19:17.434Z,11.13
2023-04-08T23:21:44.582Z,10.80
2023-04-08T23:24:11.765Z,10.57
2023-04-08T23:26:38.923Z,10.45
2023-04-08T23:29:06.066Z,11.15
2023-04-08T23:31:33.325Z,9.55
2023-04-08T23:34:00.581Z,11.15
2023-04-08T23:36:27.776Z,10.37
2023-04-08T23:38:55.105Z,11.25
2023-04-08T23:41:22.296Z,10.10
2023-04-08T23:43:49.553Z,10.05
2023-04-08T23:46:16.864Z,10.55
2023-04-08T23:48:44.072Z,10.00
2023-04-08T23:51:11.795Z,10.18
2023-04-08T23:53:39.005Z,10.45
2023-04-08T23:56:08.879Z,10.45
2023-04-08T23:58:36.403Z,11.27
